Pagrindinis puslapis
METAR-TAF:

METAR-TAF

Oro uostai :

Aleksandrupolis, Graikija

platuma: 40-51N, ilguma: 025-55E, Aukštis: 7 m

Dabartinis oras

Ataskaita buvo paskelbta 20 minutes, ne 18:50 UTC
Vėjas 4 kt iš Šiaurės Rytų
Temperatūra 21°C
Drėgmė 56%
Slėgis 1021 hPa
Matomumas 10 km arba daugiau
nėra debesų žemiau 1500 m ir nėra kamuolinių lietaus debesų

METAR: LGAL 151850Z 05004KT CAVOK 21/12 Q1021

Laikas: 22:10 (19:10 UTC)

Prognozė

Ataskaita buvo paskelbta 2 valandos ir 10 minutes, ne 17:00 UTC
Prognozė galioja nuo 15 metu 18 UTC su 16 metu 03 UTC
Vėjas 16 kt iš Rytų/Šiaurės Rytų
Matomumas 10 km arba daugiau
Mažai debesys ne aukštis 3000 ft

TAF: LGAL 151700Z 1518/1603 06016KT 9999 FEW030

Orai ataskaitas ir orų prognozės (METAR, TAF).

turimą stotys yra geltonos ir raudonos taškus žemėlapyje.

Perkelti pele per norėdami pamatyti stoties vardą.

Tada spustelėkite, norėdami matyti oro stebėjimo ir prognozės.

Norėdami pakeisti žemėlapį: spustelėkite ant žalios mygtukų su juodo kryžiaus žemyn,; žalią mygtuką su brūkšneliu, jei norite nutolinti; arba žalių rodyklių gretimoms žemėlapius.


METAR-TAF: